Terminal Aerodrome Forecast
Issued by NWS

Home | Current Version | Previous Version | Text Only | Print | Product List | Glossary Off
Versions: 1 2 3 4 5 6 7 8 9 10 11 12 13 14 15 16 17 18 19 20

000
FTUS43 KMPX 111700
TAFRNH
TAF
KRNH 111734Z 1118/1218 19012G19KT P6SM SCT030 BKN040
      TEMPO 1118/1121 SCT030 BKN200
     FM112100 20009KT P6SM FEW040 SCT250
     FM120300 19003KT P6SM SCT250
      TEMPO 1207/1210 4SM BR
     FM121000 VRB02KT 5SM BR SCT250
      TEMPO 1210/1213 2SM BR SCT004
     FM121300 29005KT P6SM SCT040 BKN150=

USA.gov is the U.S. government's official web portal to all federal, state and local government web resources and services.